Archival Weather

Norman Y Mineta San Jose Intl

San Jose, California (KSJC)

Report from: Tuesday, February 13, 2024 12:53 AM PST
Current time: Thursday, June 20, 2024 11:41 PM PDT

Current weather – Weather history – Daily summaries
Weather forecast

Temperature8.9°C (48.0°F)
Dew point5.6°C (42.1°F)
Winds Calm
Visibility10 mi. (16.1 km)
Clouds Ceiling: Broken clouds 1,600 ft. (488 m)
Altimeter30.08 in.Hg (1019 mB)
Relative humidity80 %
Density altitude-780 ft. (-238 m)
Sea-level pressure101.9 kPa (1019 mB, 30.08 in.Hg)
Remarks Fully automated report
Automated weather observing station with precipitation discriminator
Pressure falling more slowly
Flight conditions Marginal Visual Meteorological Conditions
Raw dataKSJC 130853Z AUTO 00000KT 10SM BKN016 09/06 A3008 RMK AO2 SLP186 T00890056 56001
An error has occurred. This application may no longer respond until reloaded. Reload 🗙